Time;durP1;ratioP1;P1;durP2;ratioP2;P2;SDS_P1;SDS_P2;PMS_P1;PMS_P2;Temp;Humidity;BMP_temperature;BMP_pressure;BME280_temperature;BME280_humidity;BME280_pressure;Samples;Min_cycle;Max_cycle;Signal;HPM_P1;HPM_P2
2023/10/19 00:00:56;;;;;;;12.30;9.90;;;;;;;;;;5031512;28;20201;-54
2023/10/19 00:03:23;;;;;;;12.37;10.73;;;;;;;;;;5031227;28;20252;-55
2023/10/19 00:05:49;;;;;;;11.07;9.97;;;;;;;;;;5031486;28;20205;-54
2023/10/19 00:08:20;;;;;;;12.30;11.00;;;;;;;;;;5027571;28;20223;-54
2023/10/19 00:10:48;;;;;;;11.20;10.10;;;;;;;;;;5031613;28;20205;-54
2023/10/19 00:13:14;;;;;;;13.20;11.60;;;;;;;;;;5031396;28;20196;-54
2023/10/19 00:15:46;;;;;;;13.43;12.03;;;;;;;;;;5031239;28;20246;-54
2023/10/19 00:23:09;;;;;;;13.53;11.87;;;;;;;;;;5031413;28;20721;-55
2023/10/19 00:25:41;;;;;;;14.23;12.70;;;;;;;;;;5031455;28;20209;-55
2023/10/19 00:28:07;;;;;;;14.17;12.57;;;;;;;;;;5031499;28;20205;-54
2023/10/19 00:30:35;;;;;;;14.47;12.97;;;;;;;;;;5031280;28;20200;-54
2023/10/19 00:33:03;;;;;;;17.93;13.63;;;;;;;;;;5031276;28;20656;-54
2023/10/19 00:35:36;;;;;;;16.00;13.63;;;;;;;;;;5030988;28;20285;-54
2023/10/19 00:43:42;;;;;;;16.50;14.80;;;;;;;;;;5034552;28;20233;-54
2023/10/19 00:46:14;;;;;;;15.73;13.90;;;;;;;;;;5034742;28;20280;-53
2023/10/19 00:48:41;;;;;;;16.10;13.97;;;;;;;;;;5034675;28;20659;-54
2023/10/19 00:51:08;;;;;;;16.97;14.80;;;;;;;;;;5034624;28;20205;-54
2023/10/19 00:53:35;;;;;;;17.57;14.97;;;;;;;;;;5034531;28;20635;-54
2023/10/19 00:56:09;;;;;;;18.27;16.47;;;;;;;;;;5031247;28;20284;-54
2023/10/19 00:58:36;;;;;;;18.10;14.37;;;;;;;;;;5034440;28;20303;-54
2023/10/19 01:01:05;;;;;;;17.27;15.17;;;;;;;;;;5034943;28;20215;-54
2023/10/19 01:03:36;;;;;;;17.37;15.47;;;;;;;;;;5031035;28;20215;-53
2023/10/19 01:06:05;;;;;;;17.37;15.27;;;;;;;;;;5034543;28;20196;-53
2023/10/19 01:08:39;;;;;;;18.93;15.07;;;;;;;;;;5034448;28;20613;-53
2023/10/19 01:11:10;;;;;;;16.30;14.60;;;;;;;;;;5031013;28;20216;-54
2023/10/19 01:13:36;;;;;;;15.10;13.27;;;;;;;;;;5034376;28;20243;-53
2023/10/19 01:16:04;;;;;;;17.60;14.60;;;;;;;;;;5032701;28;20201;-54
2023/10/19 01:18:33;;;;;;;17.67;15.93;;;;;;;;;;5030756;28;20233;-54
2023/10/19 01:21:04;;;;;;;16.87;15.17;;;;;;;;;;5032602;28;20197;-54
2023/10/19 01:23:34;;;;;;;17.57;15.67;;;;;;;;;;5027324;28;20211;-53
2023/10/19 01:26:05;;;;;;;19.23;16.07;;;;;;;;;;5030803;28;20200;-54
2023/10/19 01:31:07;;;;;;;15.73;14.07;;;;;;;;;;5027142;28;20216;-54
2023/10/19 01:33:36;;;;;;;17.27;15.47;;;;;;;;;;5025549;28;20300;-53
2023/10/19 01:36:11;;;;;;;17.20;15.40;;;;;;;;;;5027351;28;20212;-54
2023/10/19 01:38:39;;;;;;;15.53;13.93;;;;;;;;;;5025284;28;20248;-54
2023/10/19 01:41:13;;;;;;;17.53;15.57;;;;;;;;;;5028609;28;20284;-54
2023/10/19 01:43:40;;;;;;;14.87;13.33;;;;;;;;;;5026767;28;20762;-54
2023/10/19 01:46:12;;;;;;;16.73;14.93;;;;;;;;;;5028575;28;20201;-54
2023/10/19 01:48:40;;;;;;;15.73;14.03;;;;;;;;;;5024664;28;20193;-54
2023/10/19 01:51:07;;;;;;;17.40;14.67;;;;;;;;;;5026873;28;20284;-54
2023/10/19 01:53:35;;;;;;;17.30;15.33;;;;;;;;;;5026793;28;20211;-54
2023/10/19 01:56:09;;;;;;;15.70;14.03;;;;;;;;;;5025420;28;20235;-54
2023/10/19 01:58:36;;;;;;;17.10;15.30;;;;;;;;;;5023286;28;20316;-53
2023/10/19 02:01:06;;;;;;;16.87;15.17;;;;;;;;;;5021637;28;20197;-54
2023/10/19 02:03:32;;;;;;;18.40;16.47;;;;;;;;;;5021510;28;20330;-53
2023/10/19 02:05:59;;;;;;;16.87;14.77;;;;;;;;;;5021497;28;20204;-53
2023/10/19 02:08:26;;;;;;;18.40;16.07;;;;;;;;;;5021293;28;20189;-53
2023/10/19 02:10:52;;;;;;;17.43;15.60;;;;;;;;;;5021342;28;20251;-53
2023/10/19 02:13:19;;;;;;;18.77;15.67;;;;;;;;;;5019753;28;20193;-53
2023/10/19 02:15:45;;;;;;;16.07;14.37;;;;;;;;;;5019691;28;20243;-53
2023/10/19 02:18:12;;;;;;;16.87;14.83;;;;;;;;;;5019774;28;20253;-54
2023/10/19 02:20:41;;;;;;;18.40;15.57;;;;;;;;;;5019246;28;20251;-53
2023/10/19 02:23:07;;;;;;;17.33;15.43;;;;;;;;;;5019633;28;20311;-54
2023/10/19 02:25:37;;;;;;;18.10;16.20;;;;;;;;;;5020975;28;20303;-54
2023/10/19 02:28:06;;;;;;;18.40;15.77;;;;;;;;;;5019358;28;20219;-54
2023/10/19 02:30:34;;;;;;;19.50;15.87;;;;;;;;;;5019242;28;20205;-54
2023/10/19 02:33:00;;;;;;;18.20;16.33;;;;;;;;;;5019388;28;20276;-54
2023/10/19 02:35:27;;;;;;;18.00;15.67;;;;;;;;;;5020829;28;20196;-54
2023/10/19 02:37:54;;;;;;;18.20;16.07;;;;;;;;;;5020202;28;20228;-54
2023/10/19 02:40:21;;;;;;;16.27;14.57;;;;;;;;;;5020563;28;20767;-54
2023/10/19 02:42:47;;;;;;;18.53;16.53;;;;;;;;;;5020725;28;20711;-53
2023/10/19 02:45:15;;;;;;;17.57;14.83;;;;;;;;;;5019071;28;20193;-53
2023/10/19 02:47:42;;;;;;;17.10;14.70;;;;;;;;;;5018926;28;20247;-53
2023/10/19 02:50:11;;;;;;;16.83;15.03;;;;;;;;;;5018869;28;20336;-53
2023/10/19 02:52:37;;;;;;;16.77;15.07;;;;;;;;;;5018705;28;20205;-54
2023/10/19 02:55:04;;;;;;;20.30;15.73;;;;;;;;;;5018816;28;20255;-53
2023/10/19 02:57:31;;;;;;;17.40;15.53;;;;;;;;;;5018684;28;20233;-54
2023/10/19 02:59:58;;;;;;;17.40;15.60;;;;;;;;;;5019768;28;20228;-53
2023/10/19 03:02:26;;;;;;;18.70;16.47;;;;;;;;;;5020288;28;20212;-53
2023/10/19 03:04:54;;;;;;;18.10;16.13;;;;;;;;;;5018749;28;20227;-53
2023/10/19 03:07:20;;;;;;;18.00;16.00;;;;;;;;;;5018555;28;20209;-53
2023/10/19 03:09:53;;;;;;;18.10;16.30;;;;;;;;;;5020547;28;20211;-53
2023/10/19 03:12:19;;;;;;;16.97;15.17;;;;;;;;;;5018710;28;20197;-53
2023/10/19 03:14:47;;;;;;;17.20;15.40;;;;;;;;;;5018714;28;20212;-53
2023/10/19 03:17:13;;;;;;;19.20;17.17;;;;;;;;;;5018469;28;20235;-53
2023/10/19 03:19:39;;;;;;;18.03;16.10;;;;;;;;;;5018426;28;20200;-53
2023/10/19 03:22:08;;;;;;;18.53;16.03;;;;;;;;;;5020161;28;20256;-53
2023/10/19 03:27:13;;;;;;;16.23;14.53;;;;;;;;;;5018558;28;20189;-54
2023/10/19 03:29:39;;;;;;;17.97;16.07;;;;;;;;;;5018196;28;20228;-53
2023/10/19 03:32:09;;;;;;;17.93;15.67;;;;;;;;;;5018239;28;20227;-53
2023/10/19 03:34:35;;;;;;;17.37;15.57;;;;;;;;;;5018074;28;20659;-53
2023/10/19 03:37:12;;;;;;;18.00;16.20;;;;;;;;;;5018299;28;20232;-53
2023/10/19 03:39:40;;;;;;;18.10;16.20;;;;;;;;;;5018015;28;20718;-53
2023/10/19 03:42:06;;;;;;;17.93;15.63;;;;;;;;;;5016368;28;20243;-54
2023/10/19 03:44:53;;;;;;;18.13;16.43;;;;;;;;;;5018251;28;20209;-54
2023/10/19 03:47:19;;;;;;;19.57;17.47;;;;;;;;;;5018200;28;20268;-54
2023/10/19 03:49:46;;;;;;;18.33;16.43;;;;;;;;;;5018197;28;20750;-54
2023/10/19 03:54:41;;;;;;;18.20;16.40;;;;;;;;;;5018000;28;20204;-54
2023/10/19 03:57:19;;;;;;;17.90;16.10;;;;;;;;;;5017926;28;20248;-53
2023/10/19 03:59:46;;;;;;;20.83;16.30;;;;;;;;;;5019351;28;20259;-54
2023/10/19 04:02:16;;;;;;;18.20;15.90;;;;;;;;;;5019809;28;20293;-53
2023/10/19 04:04:49;;;;;;;18.40;16.40;;;;;;;;;;5019550;28;20207;-53
2023/10/19 04:07:21;;;;;;;18.50;16.23;;;;;;;;;;5017911;28;20538;-53
2023/10/19 04:12:24;;;;;;;19.47;16.00;;;;;;;;;;5020853;28;20549;-53
2023/10/19 04:14:50;;;;;;;17.63;15.47;;;;;;;;;;5021804;28;20208;-53
2023/10/19 04:17:20;;;;;;;17.80;15.90;;;;;;;;;;5021711;28;20651;-53
2023/10/19 04:19:46;;;;;;;18.73;15.80;;;;;;;;;;5022033;28;20203;-53
2023/10/19 04:22:21;;;;;;;19.53;16.73;;;;;;;;;;5023408;28;20201;-53
2023/10/19 04:24:49;;;;;;;17.53;15.73;;;;;;;;;;5021572;28;20279;-53
2023/10/19 04:27:15;;;;;;;16.60;14.80;;;;;;;;;;5021673;28;20207;-53
2023/10/19 04:29:43;;;;;;;17.90;15.97;;;;;;;;;;5021370;28;20247;-53
2023/10/19 04:32:09;;;;;;;18.43;16.53;;;;;;;;;;5021596;28;20217;-53
2023/10/19 04:34:36;;;;;;;17.30;15.50;;;;;;;;;;5021303;28;20228;-54
2023/10/19 04:37:06;;;;;;;16.17;14.53;;;;;;;;;;5023154;28;20283;-53
2023/10/19 04:39:34;;;;;;;16.40;14.70;;;;;;;;;;5023170;28;20216;-53
2023/10/19 04:42:01;;;;;;;14.50;13.10;;;;;;;;;;5021066;28;20256;-53
2023/10/19 04:44:27;;;;;;;14.93;13.53;;;;;;;;;;5021242;28;20215;-53
2023/10/19 04:46:53;;;;;;;15.23;13.70;;;;;;;;;;5021096;28;20204;-53
2023/10/19 04:49:19;;;;;;;14.80;13.23;;;;;;;;;;5021271;28;20247;-54
2023/10/19 04:51:46;;;;;;;15.10;13.60;;;;;;;;;;5021148;28;20215;-54
2023/10/19 04:54:13;;;;;;;14.27;12.87;;;;;;;;;;5022918;28;20645;-53
2023/10/19 04:56:39;;;;;;;13.23;11.93;;;;;;;;;;5020895;28;20231;-53
2023/10/19 04:59:07;;;;;;;13.47;12.17;;;;;;;;;;5021180;28;20212;-54
2023/10/19 05:01:33;;;;;;;12.87;11.57;;;;;;;;;;5020886;28;20209;-53
2023/10/19 05:03:59;;;;;;;13.17;11.90;;;;;;;;;;5021156;28;20212;-53
2023/10/19 05:06:25;;;;;;;13.63;12.23;;;;;;;;;;5020868;28;20189;-53
2023/10/19 05:08:54;;;;;;;11.73;10.63;;;;;;;;;;5020714;28;20224;-53
2023/10/19 05:11:20;;;;;;;11.47;10.27;;;;;;;;;;5020714;28;20227;-53
2023/10/19 05:13:46;;;;;;;11.93;10.73;;;;;;;;;;5020744;28;20259;-54
2023/10/19 05:16:14;;;;;;;11.17;10.07;;;;;;;;;;5020708;28;20201;-54
2023/10/19 05:18:40;;;;;;;10.60;9.60;;;;;;;;;;5020716;28;20793;-54
2023/10/19 05:21:06;;;;;;;10.33;9.37;;;;;;;;;;5020462;28;20610;-53
2023/10/19 05:23:32;;;;;;;9.83;8.87;;;;;;;;;;5021577;28;20228;-53
2023/10/19 05:26:00;;;;;;;10.53;9.53;;;;;;;;;;5022296;28;20205;-53
2023/10/19 05:28:26;;;;;;;9.80;8.80;;;;;;;;;;5020497;28;20244;-53
2023/10/19 05:30:52;;;;;;;9.73;8.70;;;;;;;;;;5020253;28;20276;-53
2023/10/19 05:33:23;;;;;;;9.70;8.80;;;;;;;;;;5020391;28;20350;-53
2023/10/19 05:35:49;;;;;;;9.50;8.60;;;;;;;;;;5020245;28;20204;-53
2023/10/19 05:38:15;;;;;;;9.43;8.53;;;;;;;;;;5020569;28;20228;-53
2023/10/19 05:40:43;;;;;;;8.57;7.77;;;;;;;;;;5020030;28;20284;-54
2023/10/19 05:43:09;;;;;;;9.40;8.50;;;;;;;;;;5020220;28;20706;-54
2023/10/19 05:45:38;;;;;;;8.50;7.80;;;;;;;;;;5021728;28;20201;-53
2023/10/19 05:48:06;;;;;;;8.23;7.53;;;;;;;;;;5020072;28;20267;-53
2023/10/19 05:50:34;;;;;;;8.67;7.87;;;;;;;;;;5020057;28;20205;-53
2023/10/19 05:53:00;;;;;;;8.83;8.03;;;;;;;;;;5019987;28;20201;-51
2023/10/19 05:55:26;;;;;;;7.90;7.20;;;;;;;;;;5019795;28;20212;-53
2023/10/19 05:57:52;;;;;;;8.60;7.80;;;;;;;;;;5019661;28;20232;-54
2023/10/19 06:00:20;;;;;;;9.40;8.50;;;;;;;;;;5021606;28;20655;-53
2023/10/19 06:02:47;;;;;;;9.27;8.37;;;;;;;;;;5019822;28;20197;-53
2023/10/19 06:05:16;;;;;;;8.03;7.23;;;;;;;;;;5019863;28;20189;-53
2023/10/19 06:07:44;;;;;;;7.90;7.20;;;;;;;;;;5019668;28;20572;-53
2023/10/19 06:10:15;;;;;;;7.17;6.43;;;;;;;;;;5021263;28;20231;-53
2023/10/19 06:12:41;;;;;;;7.13;6.47;;;;;;;;;;5019546;28;20674;-53
2023/10/19 06:15:10;;;;;;;7.60;6.90;;;;;;;;;;5021162;28;20538;-53
2023/10/19 06:17:36;;;;;;;7.73;7.03;;;;;;;;;;5020926;28;20758;-53
2023/10/19 06:20:03;;;;;;;7.13;6.50;;;;;;;;;;5018815;28;20768;-53
2023/10/19 06:22:30;;;;;;;6.27;5.73;;;;;;;;;;5019449;28;20233;-53
2023/10/19 06:24:58;;;;;;;7.77;7.07;;;;;;;;;;5019254;28;20788;-54
2023/10/19 06:27:24;;;;;;;7.00;6.40;;;;;;;;;;5019084;28;21151;-53
2023/10/19 06:29:50;;;;;;;6.40;5.80;;;;;;;;;;5020448;28;20203;-55
2023/10/19 06:32:16;;;;;;;6.80;6.10;;;;;;;;;;5018719;28;20220;-53
2023/10/19 06:34:42;;;;;;;6.97;6.37;;;;;;;;;;5019288;28;20208;-53
2023/10/19 06:37:10;;;;;;;6.67;6.07;;;;;;;;;;5019311;28;20282;-52
2023/10/19 06:39:40;;;;;;;5.93;5.43;;;;;;;;;;5020558;28;20212;-53
2023/10/19 06:42:13;;;;;;;6.20;5.70;;;;;;;;;;5019123;28;20240;-52
2023/10/19 06:44:39;;;;;;;6.03;5.53;;;;;;;;;;5018783;28;20726;-53
2023/10/19 06:47:06;;;;;;;6.63;6.03;;;;;;;;;;5019349;28;20247;-53
2023/10/19 06:49:33;;;;;;;5.40;5.00;;;;;;;;;;5020700;28;20213;-53
2023/10/19 06:52:00;;;;;;;5.93;5.43;;;;;;;;;;5020658;28;20205;-53
2023/10/19 06:54:27;;;;;;;5.60;5.10;;;;;;;;;;5018824;28;20570;-53
2023/10/19 06:56:53;;;;;;;5.90;5.40;;;;;;;;;;5018660;28;20201;-53
2023/10/19 06:59:21;;;;;;;5.70;5.20;;;;;;;;;;5020525;28;20201;-52
2023/10/19 07:01:47;;;;;;;5.53;5.03;;;;;;;;;;5020468;28;20663;-52
2023/10/19 07:04:13;;;;;;;5.80;5.30;;;;;;;;;;5018659;28;20211;-52
2023/10/19 07:06:39;;;;;;;5.47;4.97;;;;;;;;;;5018658;28;20197;-54
2023/10/19 07:09:05;;;;;;;5.40;4.90;;;;;;;;;;5020135;28;20251;-53
2023/10/19 07:11:33;;;;;;;5.23;4.73;;;;;;;;;;5020203;28;20620;-56
2023/10/19 07:13:59;;;;;;;5.17;4.77;;;;;;;;;;5018496;28;20722;-56
2023/10/19 07:16:27;;;;;;;5.97;5.40;;;;;;;;;;5020041;28;20259;-54
2023/10/19 07:18:53;;;;;;;5.30;4.87;;;;;;;;;;5018102;28;20601;-52
2023/10/19 07:21:20;;;;;;;6.10;5.60;;;;;;;;;;5018274;28;20201;-55
2023/10/19 07:23:49;;;;;;;6.30;5.80;;;;;;;;;;5018321;28;20205;-55
2023/10/19 07:26:15;;;;;;;6.27;5.67;;;;;;;;;;5020042;28;20193;-55
2023/10/19 07:28:42;;;;;;;6.10;5.37;;;;;;;;;;5019217;28;20259;-55
2023/10/19 07:31:12;;;;;;;6.13;5.60;;;;;;;;;;5020007;28;20229;-55
2023/10/19 07:33:45;;;;;;;6.67;6.07;;;;;;;;;;5018257;28;20613;-55
2023/10/19 07:36:14;;;;;;;6.60;6.00;;;;;;;;;;5018371;28;20287;-55
2023/10/19 07:38:42;;;;;;;5.90;5.40;;;;;;;;;;5018015;28;20232;-55
2023/10/19 07:41:09;;;;;;;6.40;5.90;;;;;;;;;;5020029;28;20201;-54
2023/10/19 07:43:35;;;;;;;6.00;5.50;;;;;;;;;;5014270;28;20370;-55
2023/10/19 07:46:01;;;;;;;6.23;5.63;;;;;;;;;;5008921;28;20205;-54
2023/10/19 07:48:27;;;;;;;6.53;5.93;;;;;;;;;;5007572;28;20202;-54
2023/10/19 07:50:55;;;;;;;5.73;5.23;;;;;;;;;;5011372;28;20687;-53
2023/10/19 07:53:21;;;;;;;6.53;5.93;;;;;;;;;;5011572;28;20683;-53
2023/10/19 07:55:47;;;;;;;6.37;5.80;;;;;;;;;;5011572;28;20255;-53
2023/10/19 07:58:14;;;;;;;6.77;6.17;;;;;;;;;;5011409;28;20221;-54
2023/10/19 08:00:42;;;;;;;6.73;6.13;;;;;;;;;;5011396;28;20212;-53
2023/10/19 08:03:10;;;;;;;6.40;5.90;;;;;;;;;;5011549;28;20643;-54
2023/10/19 08:05:38;;;;;;;6.30;5.80;;;;;;;;;;5011540;28;20284;-53
2023/10/19 08:08:06;;;;;;;5.93;5.37;;;;;;;;;;5011362;28;20316;-54
2023/10/19 08:10:34;;;;;;;6.77;5.90;;;;;;;;;;5011342;28;20210;-54
2023/10/19 08:13:01;;;;;;;7.00;6.40;;;;;;;;;;5011357;28;20211;-55
2023/10/19 08:15:29;;;;;;;6.50;5.90;;;;;;;;;;5011523;28;20628;-55
2023/10/19 08:17:56;;;;;;;6.23;5.63;;;;;;;;;;5011234;28;20230;-54
2023/10/19 08:20:31;;;;;;;5.77;5.27;;;;;;;;;;5011537;28;20189;-54
2023/10/19 08:22:58;;;;;;;5.97;5.37;;;;;;;;;;5011115;28;20217;-54
2023/10/19 08:25:28;;;;;;;5.97;5.47;;;;;;;;;;5011123;28;20445;-54
2023/10/19 08:27:58;;;;;;;5.87;5.37;;;;;;;;;;5011199;28;20217;-55
2023/10/19 08:30:24;;;;;;;5.90;4.90;;;;;;;;;;5011384;28;20629;-54
2023/10/19 08:32:51;;;;;;;5.37;4.87;;;;;;;;;;5011087;28;20578;-55
2023/10/19 08:35:20;;;;;;;5.53;5.03;;;;;;;;;;5011189;28;20733;-55
2023/10/19 08:37:46;;;;;;;5.30;4.80;;;;;;;;;;5011128;28;20288;-54
2023/10/19 08:40:16;;;;;;;5.90;5.30;;;;;;;;;;5011278;28;20417;-55
2023/10/19 08:42:45;;;;;;;5.10;4.60;;;;;;;;;;5010966;28;20583;-54
2023/10/19 08:45:16;;;;;;;5.80;5.30;;;;;;;;;;5011284;28;20202;-56
2023/10/19 08:47:47;;;;;;;6.23;5.40;;;;;;;;;;5011060;28;20201;-55
2023/10/19 08:50:14;;;;;;;5.40;4.90;;;;;;;;;;5011423;28;20204;-53
2023/10/19 08:52:42;;;;;;;5.40;4.90;;;;;;;;;;5011065;28;20245;-53
2023/10/19 08:55:09;;;;;;;5.17;4.77;;;;;;;;;;5010826;28;20225;-52
2023/10/19 08:57:38;;;;;;;5.43;4.93;;;;;;;;;;5010851;28;20232;-53
2023/10/19 09:00:06;;;;;;;5.33;4.83;;;;;;;;;;5014347;28;20550;-53
2023/10/19 09:02:33;;;;;;;5.47;4.97;;;;;;;;;;5014736;28;20251;-55
2023/10/19 09:04:59;;;;;;;5.17;4.77;;;;;;;;;;5014505;28;20206;-55
2023/10/19 09:07:30;;;;;;;7.40;6.80;;;;;;;;;;5014568;28;20193;-55
2023/10/19 09:09:57;;;;;;;6.97;6.37;;;;;;;;;;5013860;28;20206;-54
2023/10/19 09:12:23;;;;;;;6.07;5.33;;;;;;;;;;5014489;28;20272;-53
2023/10/19 09:14:49;;;;;;;4.80;4.40;;;;;;;;;;5014332;28;20236;-53
2023/10/19 09:17:28;;;;;;;5.07;4.63;;;;;;;;;;5014270;28;20205;-53
2023/10/19 09:19:56;;;;;;;4.60;4.20;;;;;;;;;;5014050;28;20213;-55
2023/10/19 09:22:25;;;;;;;4.80;4.30;;;;;;;;;;5013951;28;20221;-55
2023/10/19 09:24:53;;;;;;;4.60;4.20;;;;;;;;;;5014093;28;20590;-55
2023/10/19 09:27:19;;;;;;;4.70;4.30;;;;;;;;;;5014322;28;20204;-55
2023/10/19 09:29:46;;;;;;;4.10;3.80;;;;;;;;;;5013944;28;20686;-53
2023/10/19 09:32:15;;;;;;;4.50;4.10;;;;;;;;;;5013869;28;20218;-54
2023/10/19 09:34:44;;;;;;;4.13;3.83;;;;;;;;;;5013125;28;20631;-55
2023/10/19 09:37:12;;;;;;;4.20;3.80;;;;;;;;;;5011382;28;20201;-55
2023/10/19 09:39:39;;;;;;;4.50;4.10;;;;;;;;;;5009536;28;20668;-54
2023/10/19 09:42:10;;;;;;;4.87;4.47;;;;;;;;;;5013873;28;20264;-55
2023/10/19 09:44:40;;;;;;;4.27;3.97;;;;;;;;;;5014046;28;20202;-55
2023/10/19 09:47:10;;;;;;;4.37;4.07;;;;;;;;;;5014111;28;20226;-55
2023/10/19 09:49:36;;;;;;;4.10;3.80;;;;;;;;;;5014082;28;20201;-55
2023/10/19 09:52:07;;;;;;;3.80;3.50;;;;;;;;;;5011553;28;20268;-55
2023/10/19 09:54:38;;;;;;;4.30;3.90;;;;;;;;;;5013304;28;20233;-55
2023/10/19 09:57:12;;;;;;;4.50;4.10;;;;;;;;;;5013286;28;20692;-55
2023/10/19 09:59:41;;;;;;;3.77;3.47;;;;;;;;;;5013516;28;20205;-55
2023/10/19 10:02:08;;;;;;;3.50;3.30;;;;;;;;;;5013312;28;20694;-55
2023/10/19 10:04:35;;;;;;;3.90;3.60;;;;;;;;;;5013382;28;20714;-55
2023/10/19 10:07:04;;;;;;;4.27;3.90;;;;;;;;;;5013403;28;20198;-55
2023/10/19 10:09:33;;;;;;;4.47;4.07;;;;;;;;;;5013363;28;20281;-55
2023/10/19 10:12:15;;;;;;;4.20;3.90;;;;;;;;;;5013693;28;20205;-55
2023/10/19 10:14:52;;;;;;;4.20;3.90;;;;;;;;;;5013689;28;20224;-55
2023/10/19 10:17:19;;;;;;;14.87;13.33;;;;;;;;;;5013800;28;20220;-56
2023/10/19 10:19:45;;;;;;;12.30;11.00;;;;;;;;;;5013656;28;20210;-56
2023/10/19 10:22:11;;;;;;;5.77;5.27;;;;;;;;;;5011760;28;20202;-55
2023/10/19 10:24:41;;;;;;;11.80;11.00;;;;;;;;;;5013515;28;20204;-55
2023/10/19 10:27:07;;;;;;;4.00;3.70;;;;;;;;;;5013450;28;20209;-55
2023/10/19 10:29:33;;;;;;;5.47;5.00;;;;;;;;;;5011739;28;20198;-55
2023/10/19 10:32:00;;;;;;;27.73;25.37;;;;;;;;;;5006281;28;20613;-55
2023/10/19 10:34:44;;;;;;;38.37;28.20;;;;;;;;;;5009947;28;20336;-55
2023/10/19 10:37:11;;;;;;;13.63;12.23;;;;;;;;;;5011531;28;20244;-55
2023/10/19 10:39:37;;;;;;;22.07;16.60;;;;;;;;;;5006279;28;20198;-55
2023/10/19 10:42:06;;;;;;;4.57;4.17;;;;;;;;;;5007785;28;20291;-55
2023/10/19 10:44:38;;;;;;;4.43;4.03;;;;;;;;;;5008032;28;20204;-55
2023/10/19 10:47:04;;;;;;;4.90;4.50;;;;;;;;;;5009233;28;20205;-55
2023/10/19 10:49:30;;;;;;;5.93;5.43;;;;;;;;;;5011439;28;20198;-55
2023/10/19 10:51:56;;;;;;;4.57;4.17;;;;;;;;;;5009490;28;20256;-54
2023/10/19 10:54:22;;;;;;;4.97;4.10;;;;;;;;;;5006155;28;20731;-55
2023/10/19 10:56:50;;;;;;;4.53;4.17;;;;;;;;;;5004601;28;20197;-55
2023/10/19 10:59:17;;;;;;;4.90;4.50;;;;;;;;;;5006077;28;20272;-54
2023/10/19 11:01:44;;;;;;;5.50;4.73;;;;;;;;;;5009254;28;20296;-54
2023/10/19 11:04:11;;;;;;;5.67;5.17;;;;;;;;;;5005732;28;20273;-54
2023/10/19 11:06:46;;;;;;;5.43;4.90;;;;;;;;;;5005813;28;20574;-55
2023/10/19 11:09:12;;;;;;;5.00;4.60;;;;;;;;;;5000533;28;20232;-55
2023/10/19 11:11:39;;;;;;;5.10;4.60;;;;;;;;;;5001893;28;20245;-54
2023/10/19 11:14:09;;;;;;;5.17;4.40;;;;;;;;;;5005613;28;20292;-55
2023/10/19 11:16:39;;;;;;;5.63;5.10;;;;;;;;;;5004947;28;20228;-55
2023/10/19 11:19:05;;;;;;;5.00;4.60;;;;;;;;;;5007317;28;20233;-55
2023/10/19 11:21:31;;;;;;;5.17;4.77;;;;;;;;;;5002061;28;20217;-55
2023/10/19 11:23:57;;;;;;;5.77;5.30;;;;;;;;;;5000432;28;20197;-55
2023/10/19 11:26:27;;;;;;;49.63;44.10;;;;;;;;;;5001955;28;20665;-55
2023/10/19 11:29:00;;;;;;;6.00;5.40;;;;;;;;;;5002174;28;20213;-54
2023/10/19 11:31:27;;;;;;;6.03;5.43;;;;;;;;;;5001796;28;20229;-54
2023/10/19 11:33:55;;;;;;;6.67;6.07;;;;;;;;;;5000301;28;20197;-55
2023/10/19 11:36:22;;;;;;;7.47;6.63;;;;;;;;;;5001844;28;20206;-55
2023/10/19 11:38:51;;;;;;;6.00;5.50;;;;;;;;;;5000197;28;20240;-55
2023/10/19 11:41:17;;;;;;;5.77;5.27;;;;;;;;;;5000425;28;20201;-55
2023/10/19 11:43:44;;;;;;;6.27;4.77;;;;;;;;;;5000248;28;20248;-54
2023/10/19 11:46:14;;;;;;;6.00;5.33;;;;;;;;;;5000125;28;20652;-54
2023/10/19 11:48:42;;;;;;;6.27;5.67;;;;;;;;;;5001902;28;20193;-54
2023/10/19 11:51:14;;;;;;;6.67;5.30;;;;;;;;;;5001882;28;20198;-55
2023/10/19 11:53:40;;;;;;;6.50;5.70;;;;;;;;;;5000137;28;20186;-55
2023/10/19 11:56:07;;;;;;;6.00;5.33;;;;;;;;;;5000166;28;20193;-54
2023/10/19 11:58:41;;;;;;;6.63;5.97;;;;;;;;;;5000257;28;20228;-55
2023/10/19 12:01:13;;;;;;;6.70;6.10;;;;;;;;;;5000105;28;20204;-55
2023/10/19 12:03:40;;;;;;;6.07;5.47;;;;;;;;;;5001779;28;20205;-54
2023/10/19 12:06:06;;;;;;;9.20;8.30;;;;;;;;;;4998375;28;20308;-54
2023/10/19 12:08:34;;;;;;;6.50;5.90;;;;;;;;;;5000153;28;20660;-54
2023/10/19 12:11:19;;;;;;;7.40;5.90;;;;;;;;;;4998515;28;20210;-55
2023/10/19 12:13:45;;;;;;;6.30;5.60;;;;;;;;;;5000179;28;20228;-54
2023/10/19 12:16:12;;;;;;;6.77;5.93;;;;;;;;;;5001475;28;20208;-55
2023/10/19 12:18:38;;;;;;;6.00;5.40;;;;;;;;;;4999812;28;20229;-55
2023/10/19 12:21:07;;;;;;;6.30;5.70;;;;;;;;;;4999799;28;20252;-54
2023/10/19 12:23:35;;;;;;;5.70;5.10;;;;;;;;;;4999670;28;20220;-54
2023/10/19 12:26:04;;;;;;;6.97;5.60;;;;;;;;;;4998154;28;20614;-54
2023/10/19 12:28:30;;;;;;;6.07;5.23;;;;;;;;;;4998447;28;20221;-54
2023/10/19 12:30:56;;;;;;;7.30;5.87;;;;;;;;;;4999829;28;20201;-54
2023/10/19 12:33:22;;;;;;;97.30;56.50;;;;;;;;;;5000730;28;20248;-54
2023/10/19 12:35:51;;;;;;;19.40;15.20;;;;;;;;;;5001515;28;20284;-53
2023/10/19 12:38:17;;;;;;;25.00;17.30;;;;;;;;;;5001506;28;20234;-54
2023/10/19 12:40:46;;;;;;;15.57;13.87;;;;;;;;;;5003382;28;20289;-54
2023/10/19 12:43:13;;;;;;;11.43;10.23;;;;;;;;;;5003185;28;20638;-54
2023/10/19 12:45:40;;;;;;;17.53;15.73;;;;;;;;;;5001602;28;20198;-54
2023/10/19 12:48:06;;;;;;;10.03;9.00;;;;;;;;;;5001606;28;20193;-54
2023/10/19 12:50:32;;;;;;;10.03;9.03;;;;;;;;;;5001546;28;20216;-54
2023/10/19 12:53:00;;;;;;;13.13;11.77;;;;;;;;;;5003203;28;20240;-54
2023/10/19 12:55:27;;;;;;;13.27;10.00;;;;;;;;;;5001267;28;20241;-53
2023/10/19 12:57:56;;;;;;;32.17;28.70;;;;;;;;;;5001971;28;20538;-54
2023/10/19 13:00:36;;;;;;;9.10;8.20;;;;;;;;;;5002838;28;20737;-54
2023/10/19 13:03:03;;;;;;;13.00;11.70;;;;;;;;;;5001230;28;20207;-54
2023/10/19 13:05:32;;;;;;;10.27;9.27;;;;;;;;;;5001282;28;20660;-54
2023/10/19 13:07:58;;;;;;;10.80;9.70;;;;;;;;;;5001163;28;20193;-54
2023/10/19 13:10:29;;;;;;;11.63;10.37;;;;;;;;;;5000868;28;20260;-54
2023/10/19 13:12:56;;;;;;;9.13;7.93;;;;;;;;;;5001000;28;20233;-54
2023/10/19 13:15:26;;;;;;;12.13;10.93;;;;;;;;;;5002678;28;20221;-54
2023/10/19 13:17:52;;;;;;;18.83;14.27;;;;;;;;;;5002759;28;20641;-54
2023/10/19 13:20:18;;;;;;;33.03;27.00;;;;;;;;;;5000911;28;20687;-53
2023/10/19 13:22:45;;;;;;;9.90;8.90;;;;;;;;;;5002765;28;20197;-53
2023/10/19 13:25:16;;;;;;;24.23;19.20;;;;;;;;;;5000710;28;20635;-53
2023/10/19 13:27:44;;;;;;;72.57;46.87;;;;;;;;;;5000816;28;20204;-55
2023/10/19 13:30:14;;;;;;;60.93;41.80;;;;;;;;;;5002495;28;20265;-52
2023/10/19 13:32:41;;;;;;;62.90;43.40;;;;;;;;;;5000890;28;20226;-54
2023/10/19 13:35:07;;;;;;;32.30;24.27;;;;;;;;;;5000539;28;20205;-53
2023/10/19 13:37:33;;;;;;;60.33;43.57;;;;;;;;;;5000555;28;20208;-54
2023/10/19 13:39:59;;;;;;;58.93;37.87;;;;;;;;;;5002265;28;20208;-51
2023/10/19 13:42:25;;;;;;;17.73;14.40;;;;;;;;;;5002168;28;20615;-51
2023/10/19 13:44:51;;;;;;;19.80;14.47;;;;;;;;;;4999581;28;20209;-54
2023/10/19 13:47:19;;;;;;;38.17;26.73;;;;;;;;;;5000220;28;20219;-55
2023/10/19 13:49:46;;;;;;;39.30;28.07;;;;;;;;;;5000648;28;20253;-52
2023/10/19 13:52:14;;;;;;;16.80;13.30;;;;;;;;;;5000395;28;20193;-49
2023/10/19 13:54:40;;;;;;;31.13;23.73;;;;;;;;;;5000411;28;20614;-52
2023/10/19 13:57:06;;;;;;;52.83;37.97;;;;;;;;;;5000161;28;20301;-56
2023/10/19 13:59:33;;;;;;;23.47;17.90;;;;;;;;;;5001901;28;20320;-55
2023/10/19 14:01:59;;;;;;;24.17;17.60;;;;;;;;;;5000213;28;20194;-55
2023/10/19 14:04:26;;;;;;;17.23;13.83;;;;;;;;;;4999980;28;20209;-54
2023/10/19 14:06:53;;;;;;;113.73;77.33;;;;;;;;;;4998296;28;20208;-54
2023/10/19 14:09:23;;;;;;;14.87;12.47;;;;;;;;;;5001880;28;20252;-53
2023/10/19 14:11:49;;;;;;;26.33;20.27;;;;;;;;;;5000116;28;20206;-53
2023/10/19 14:14:15;;;;;;;68.63;45.20;;;;;;;;;;4999938;28;20202;-56
2023/10/19 14:16:42;;;;;;;45.80;30.20;;;;;;;;;;5001729;28;20343;-56
2023/10/19 14:19:08;;;;;;;20.03;17.90;;;;;;;;;;4999608;28;20229;-55
2023/10/19 14:21:39;;;;;;;46.10;41.93;;;;;;;;;;5001581;28;20197;-54
2023/10/19 14:24:08;;;;;;;19.23;14.73;;;;;;;;;;5001610;28;20614;-55
2023/10/19 14:26:34;;;;;;;16.60;15.00;;;;;;;;;;4999911;28;20201;-54
2023/10/19 14:29:00;;;;;;;15.20;12.80;;;;;;;;;;4999964;28;20261;-55
2023/10/19 14:31:26;;;;;;;17.23;14.17;;;;;;;;;;4999544;28;20225;-54
2023/10/19 14:33:52;;;;;;;16.03;12.17;;;;;;;;;;4999719;28;20763;-55
2023/10/19 14:36:19;;;;;;;15.90;12.67;;;;;;;;;;4999637;28;20206;-55
2023/10/19 14:38:46;;;;;;;16.53;13.73;;;;;;;;;;5001299;28;20239;-55
2023/10/19 14:41:12;;;;;;;16.40;13.60;;;;;;;;;;4999506;28;20202;-55
2023/10/19 14:43:38;;;;;;;15.87;12.87;;;;;;;;;;4999404;28;20336;-55
2023/10/19 14:46:06;;;;;;;17.43;13.13;;;;;;;;;;4999486;28;20288;-55
2023/10/19 14:48:32;;;;;;;16.70;13.70;;;;;;;;;;4999541;28;20217;-54
2023/10/19 14:50:58;;;;;;;17.70;12.83;;;;;;;;;;4999392;28;20710;-54
2023/10/19 14:53:24;;;;;;;18.77;14.40;;;;;;;;;;4999208;28;20225;-55